Avenal, California
Current Conditions -  °F | °C
As of 9:56 PM on Wednesday 28 Jan 2015 (Local Time) from KNLC Reporting Station
Haze Haze  
Wind Chill: 49°   Ceiling: 17000
Heat Index: 49°   Visibility: 2mi
Dew Point: 48°   Wind: 3mph
Humidity: 97%   Direction: 150°SSE
Pressure: 30.2"   Gusts: NA
Location:  36°N, 120.13°W
Report Text: KNLC 290556Z 15003KT 2SM BR FEW015 SCT130 BKN170 09/09 A3020 RMK AO2 SLP225 RH/93 T00940089 10139 20089 58001 $
Loading
Personal Weather Stations






























Interactive Weather Map New forecast layout! Learn more

10-Day Weather Forecast

Advertisements
Track Severe Weather on mobile